createdAt,value
2023-04-17T00:00:51.281Z,28.13
2023-04-17T00:03:19.676Z,26.50
2023-04-17T00:05:48.962Z,25.10
2023-04-17T00:08:17.462Z,27.07
2023-04-17T00:10:53.792Z,27.90
2023-04-17T00:13:28.814Z,30.00
2023-04-17T00:15:58.713Z,26.30
2023-04-17T00:18:27.112Z,27.53
2023-04-17T00:20:56.673Z,27.87
2023-04-17T00:23:25.163Z,26.87
2023-04-17T00:25:53.549Z,29.00
2023-04-17T00:28:21.868Z,30.90
2023-04-17T00:30:50.205Z,29.80
2023-04-17T00:33:19.888Z,30.33
2023-04-17T00:35:48.388Z,33.70
2023-04-17T00:38:16.839Z,32.70
2023-04-17T00:40:46.339Z,31.93
2023-04-17T00:43:14.769Z,31.03
2023-04-17T00:45:43.334Z,31.57
2023-04-17T00:48:13.537Z,28.77
2023-04-17T00:50:43.830Z,29.83
2023-04-17T00:53:12.689Z,32.73
2023-04-17T00:55:42.333Z,37.60
2023-04-17T00:58:12.087Z,31.60
2023-04-17T01:00:40.654Z,35.60
2023-04-17T01:03:09.266Z,32.90
2023-04-17T01:05:38.454Z,30.40
2023-04-17T01:08:08.705Z,32.50
2023-04-17T01:10:37.087Z,32.10
2023-04-17T01:13:07.073Z,30.73
2023-04-17T01:15:37.276Z,32.83
2023-04-17T01:18:07.222Z,37.30
2023-04-17T01:20:35.853Z,32.97
2023-04-17T01:23:04.375Z,33.80
2023-04-17T01:25:34.276Z,31.63
2023-04-17T01:28:02.627Z,32.53
2023-04-17T01:30:31.584Z,34.23
2023-04-17T01:33:06.611Z,33.80
2023-04-17T01:35:35.071Z,35.20
2023-04-17T01:38:03.477Z,30.70
2023-04-17T01:40:33.259Z,33.17
2023-04-17T01:43:01.954Z,30.80
2023-04-17T01:45:30.397Z,30.07
2023-04-17T01:48:00.905Z,32.27
2023-04-17T01:50:29.377Z,29.83
2023-04-17T01:52:57.731Z,30.50
2023-04-17T01:55:26.106Z,33.27
2023-04-17T01:57:55.828Z,32.30
2023-04-17T02:00:24.679Z,30.97
2023-04-17T02:02:54.484Z,32.07
2023-04-17T02:05:24.667Z,33.40
2023-04-17T02:07:53.061Z,35.10
2023-04-17T02:10:21.432Z,35.40
2023-04-17T02:12:49.986Z,31.57
2023-04-17T02:15:20.017Z,32.67
2023-04-17T02:17:48.497Z,34.53
2023-04-17T02:20:17.027Z,36.57
2023-04-17T02:22:45.540Z,33.60
2023-04-17T02:25:13.926Z,36.07
2023-04-17T02:27:42.400Z,35.60
2023-04-17T02:30:12.122Z,36.10
2023-04-17T02:32:42.720Z,35.43
2023-04-17T02:35:11.548Z,34.40
2023-04-17T02:37:40.108Z,35.53
2023-04-17T02:40:10.405Z,38.50
2023-04-17T02:42:39.505Z,35.43
2023-04-17T02:45:09.935Z,38.33
2023-04-17T02:47:38.567Z,37.17
2023-04-17T02:50:10.321Z,35.20
2023-04-17T02:52:47.047Z,32.40
2023-04-17T02:55:15.538Z,38.00
2023-04-17T02:57:44.709Z,38.73
2023-04-17T03:00:15.169Z,32.37
2023-04-17T03:02:44.063Z,37.00
2023-04-17T03:05:14.974Z,38.27
2023-04-17T03:07:43.557Z,33.90
2023-04-17T03:10:12.378Z,33.60
2023-04-17T03:12:40.902Z,33.73
2023-04-17T03:15:10.667Z,35.23
2023-04-17T03:17:40.176Z,33.00
2023-04-17T03:20:10.269Z,36.10
2023-04-17T03:22:40.241Z,39.20
2023-04-17T03:25:10.319Z,38.87
2023-04-17T03:27:45.931Z,36.50
2023-04-17T03:30:15.750Z,36.30
2023-04-17T03:32:48.279Z,33.33
2023-04-17T03:35:16.888Z,35.97
2023-04-17T03:37:46.694Z,37.17
2023-04-17T03:40:15.416Z,34.90
2023-04-17T03:42:46.018Z,34.43
2023-04-17T03:45:14.828Z,33.67
2023-04-17T03:47:43.333Z,33.20
2023-04-17T03:50:12.614Z,35.23
2023-04-17T03:52:48.963Z,37.70
2023-04-17T03:55:18.038Z,36.93
2023-04-17T03:57:49.900Z,36.67
2023-04-17T04:00:21.954Z,35.80
2023-04-17T04:02:58.424Z,34.83
2023-04-17T04:05:36.597Z,37.07
2023-04-17T04:08:07.093Z,34.70
2023-04-17T04:10:44.247Z,38.20
2023-04-17T04:13:15.665Z,36.83
2023-04-17T04:15:49.930Z,36.50
2023-04-17T04:18:21.096Z,38.20
2023-04-17T04:20:50.387Z,35.20
2023-04-17T04:23:28.146Z,41.17
2023-04-17T04:25:57.983Z,36.37
2023-04-17T04:28:34.740Z,37.40
2023-04-17T04:31:04.187Z,36.77
2023-04-17T04:33:38.088Z,37.87
2023-04-17T04:36:07.122Z,36.40
2023-04-17T04:38:38.510Z,34.80
2023-04-17T04:41:20.077Z,36.20
2023-04-17T04:43:48.531Z,37.37
2023-04-17T04:46:17.166Z,42.47
2023-04-17T04:48:49.044Z,39.23
2023-04-17T04:51:18.942Z,40.80
2023-04-17T04:53:49.747Z,37.10
2023-04-17T04:56:19.216Z,42.70
2023-04-17T04:58:50.049Z,36.77
2023-04-17T05:01:19.074Z,40.43
2023-04-17T05:03:48.523Z,39.10
2023-04-17T05:06:24.045Z,36.93
2023-04-17T05:08:59.262Z,39.47
2023-04-17T05:11:27.644Z,37.47
2023-04-17T05:13:55.992Z,38.33
2023-04-17T05:16:31.010Z,36.67
2023-04-17T05:19:00.207Z,38.67
2023-04-17T05:21:51.751Z,39.73
2023-04-17T05:24:23.320Z,35.80
2023-04-17T05:26:53.549Z,37.33
2023-04-17T05:29:21.962Z,35.53
2023-04-17T05:31:50.534Z,42.33
2023-04-17T05:34:39.254Z,33.00
2023-04-17T05:37:08.196Z,34.90
2023-04-17T05:39:38.048Z,35.70
2023-04-17T05:42:06.653Z,35.20
2023-04-17T05:44:35.358Z,35.77
2023-04-17T05:47:04.673Z,38.57
2023-04-17T05:49:33.009Z,39.60
2023-04-17T05:52:01.516Z,35.50
2023-04-17T05:54:30.370Z,39.43
2023-04-17T05:57:01.072Z,36.83
2023-04-17T05:59:29.656Z,35.53
2023-04-17T06:01:59.587Z,35.77
2023-04-17T06:04:29.610Z,34.77
2023-04-17T06:06:58.183Z,33.83
2023-04-17T06:09:27.429Z,32.90
2023-04-17T06:11:55.852Z,35.70
2023-04-17T06:14:25.696Z,34.40
2023-04-17T06:16:54.551Z,29.47
2023-04-17T06:19:24.060Z,30.67
2023-04-17T06:21:52.602Z,30.40
2023-04-17T06:24:21.350Z,34.23
2023-04-17T06:26:49.805Z,30.20
2023-04-17T06:29:18.246Z,30.70
2023-04-17T06:31:48.246Z,29.60
2023-04-17T06:34:19.755Z,30.00
2023-04-17T06:36:49.228Z,31.17
2023-04-17T06:39:19.262Z,29.77
2023-04-17T06:41:48.601Z,29.33
2023-04-17T06:44:25.263Z,27.03
2023-04-17T06:47:00.476Z,29.70
2023-04-17T06:49:30.305Z,31.03
2023-04-17T06:51:58.738Z,30.13
2023-04-17T06:54:27.680Z,30.57
2023-04-17T06:56:56.717Z,28.70
2023-04-17T06:59:25.132Z,29.10
2023-04-17T07:01:53.645Z,30.57
2023-04-17T07:04:23.530Z,29.90
2023-04-17T07:06:52.236Z,30.83
2023-04-17T07:09:20.671Z,30.03
2023-04-17T07:11:49.156Z,30.63
2023-04-17T07:14:17.638Z,29.27
2023-04-17T07:16:46.156Z,29.27
2023-04-17T07:19:14.876Z,27.67
2023-04-17T07:21:44.715Z,27.20
2023-04-17T07:24:13.137Z,29.83
2023-04-17T07:26:43.306Z,28.70
2023-04-17T07:29:11.922Z,29.27
2023-04-17T07:31:40.449Z,30.00
2023-04-17T07:34:08.845Z,27.20
2023-04-17T07:36:37.427Z,28.53
2023-04-17T07:39:08.074Z,29.30
2023-04-17T07:41:36.488Z,28.77
2023-04-17T07:44:05.823Z,28.30
2023-04-17T07:46:34.310Z,27.67
2023-04-17T07:49:02.827Z,28.30
2023-04-17T07:51:32.287Z,29.70
2023-04-17T07:54:01.441Z,26.63
2023-04-17T07:56:31.920Z,28.73
2023-04-17T07:59:00.357Z,31.60
2023-04-17T08:01:28.888Z,31.90
2023-04-17T08:03:58.467Z,27.60
2023-04-17T08:06:27.397Z,27.43
2023-04-17T08:08:55.806Z,29.17
2023-04-17T08:11:24.704Z,29.30
2023-04-17T08:13:56.320Z,32.23
2023-04-17T08:16:25.934Z,28.17
2023-04-17T08:18:54.893Z,28.43
2023-04-17T08:21:23.502Z,30.00
2023-04-17T08:23:52.444Z,28.00
2023-04-17T08:26:20.863Z,29.07
2023-04-17T08:28:49.402Z,30.80
2023-04-17T08:31:19.122Z,26.93
2023-04-17T08:33:47.552Z,27.53
2023-04-17T08:36:16.048Z,25.83
2023-04-17T08:38:45.170Z,27.67
2023-04-17T08:41:21.571Z,28.63
2023-04-17T08:43:51.287Z,27.43
2023-04-17T08:46:23.422Z,25.07
2023-04-17T08:48:52.325Z,26.47
2023-04-17T08:51:21.068Z,26.70
2023-04-17T08:53:49.454Z,25.90
2023-04-17T08:56:17.845Z,18.43
2023-04-17T08:58:46.726Z,16.17
2023-04-17T09:01:17.640Z,17.33
2023-04-17T09:03:51.845Z,16.70
2023-04-17T09:06:20.373Z,16.10
2023-04-17T09:09:00.413Z,14.00
2023-04-17T09:11:29.408Z,14.63
2023-04-17T09:13:57.893Z,13.50
2023-04-17T09:16:26.380Z,14.40
2023-04-17T09:19:06.854Z,12.73
2023-04-17T09:21:35.360Z,14.10
2023-04-17T09:24:05.452Z,15.20
2023-04-17T09:26:34.122Z,15.60
2023-04-17T09:29:07.853Z,15.00
2023-04-17T09:31:37.613Z,15.33
2023-04-17T09:34:09.597Z,14.20
2023-04-17T09:36:40.072Z,14.33
2023-04-17T09:39:20.433Z,14.57
2023-04-17T09:41:49.004Z,13.27
2023-04-17T09:44:27.941Z,14.40
2023-04-17T09:46:56.970Z,17.13
2023-04-17T09:49:34.932Z,15.23
2023-04-17T09:52:04.313Z,14.70
2023-04-17T09:54:37.846Z,15.50
2023-04-17T09:57:09.492Z,16.93
2023-04-17T09:59:41.277Z,13.50
2023-04-17T10:02:11.717Z,13.60
2023-04-17T10:04:43.172Z,14.70
2023-04-17T10:07:12.746Z,14.53
2023-04-17T10:09:42.811Z,14.60
2023-04-17T10:12:16.850Z,15.17
2023-04-17T10:14:48.846Z,13.17
2023-04-17T10:17:31.789Z,14.03
2023-04-17T10:20:36.593Z,16.07
2023-04-17T10:23:34.610Z,11.70
2023-04-17T10:26:45.832Z,12.33
2023-04-17T10:29:14.424Z,11.40
2023-04-17T10:32:27.793Z,11.00
2023-04-17T10:34:58.257Z,10.10
2023-04-17T10:38:07.888Z,8.77
2023-04-17T10:40:37.730Z,7.93
2023-04-17T10:43:12.329Z,7.43
2023-04-17T10:45:58.583Z,5.20
2023-04-17T10:48:35.103Z,4.43
2023-04-17T10:51:43.709Z,4.20
2023-04-17T10:54:15.665Z,6.23
2023-04-17T10:56:48.383Z,6.83
2023-04-17T10:59:18.186Z,6.50
2023-04-17T11:02:04.379Z,8.80
2023-04-17T11:04:34.543Z,9.67
2023-04-17T11:07:03.186Z,7.93
2023-04-17T11:09:33.074Z,8.00
2023-04-17T11:12:02.937Z,8.10
2023-04-17T11:14:32.287Z,8.20
2023-04-17T11:17:02.254Z,9.20
2023-04-17T11:19:30.888Z,7.70
2023-04-17T11:22:01.489Z,7.10
2023-04-17T11:24:32.765Z,3.90
2023-04-17T11:27:03.527Z,3.10
2023-04-17T11:29:32.321Z,3.40
2023-04-17T11:32:01.486Z,3.07
2023-04-17T11:34:30.445Z,5.93
2023-04-17T11:37:01.697Z,4.10
2023-04-17T11:39:33.708Z,3.90
2023-04-17T11:42:03.855Z,3.93
2023-04-17T11:44:32.505Z,4.23
2023-04-17T11:47:01.208Z,3.77
2023-04-17T11:49:32.237Z,3.77
2023-04-17T11:52:02.472Z,7.03
2023-04-17T11:54:33.221Z,4.50
2023-04-17T11:57:03.638Z,4.10
2023-04-17T11:59:32.971Z,3.63
2023-04-17T12:02:02.225Z,3.77
2023-04-17T12:04:34.101Z,5.30
2023-04-17T12:07:03.808Z,3.77
2023-04-17T12:09:34.167Z,4.60
2023-04-17T12:12:05.910Z,4.87
2023-04-17T12:14:34.665Z,4.20
2023-04-17T12:17:03.188Z,4.30
2023-04-17T12:19:32.014Z,4.27
2023-04-17T12:22:00.858Z,5.10
2023-04-17T12:24:29.274Z,4.60
2023-04-17T12:27:01.866Z,5.90
2023-04-17T12:29:43.165Z,4.87
2023-04-17T12:32:12.905Z,4.60
2023-04-17T12:34:41.578Z,7.10
2023-04-17T12:37:10.201Z,5.17
2023-04-17T12:39:38.590Z,7.63
2023-04-17T12:42:08.443Z,4.73
2023-04-17T12:44:36.778Z,5.13
2023-04-17T12:47:05.369Z,5.57
2023-04-17T12:49:33.814Z,21.73
2023-04-17T12:52:03.888Z,5.50
2023-04-17T12:54:33.069Z,6.00
2023-04-17T12:57:02.776Z,5.33
2023-04-17T12:59:32.694Z,5.00
2023-04-17T13:02:01.564Z,5.33
2023-04-17T13:04:30.209Z,4.93
2023-04-17T13:06:59.077Z,5.10
2023-04-17T13:09:27.459Z,5.07
2023-04-17T13:11:55.795Z,4.80
2023-04-17T13:14:24.474Z,4.83
2023-04-17T13:16:54.221Z,4.87
2023-04-17T13:19:22.695Z,6.07
2023-04-17T13:21:52.843Z,5.37
2023-04-17T13:24:21.296Z,4.60
2023-04-17T13:26:49.763Z,5.20
2023-04-17T13:29:19.514Z,5.37
2023-04-17T13:31:48.326Z,4.70
2023-04-17T13:34:18.369Z,4.67
2023-04-17T13:36:46.845Z,7.07
2023-04-17T13:39:15.389Z,4.83
2023-04-17T13:41:43.824Z,5.70
2023-04-17T13:44:12.520Z,6.90
2023-04-17T13:46:41.681Z,7.43
2023-04-17T13:49:10.262Z,6.70
2023-04-17T13:51:40.192Z,5.23
2023-04-17T13:54:10.041Z,5.13
2023-04-17T13:56:38.472Z,7.97
2023-04-17T13:59:07.430Z,6.27
2023-04-17T14:01:35.864Z,5.00
2023-04-17T14:04:06.281Z,5.80
2023-04-17T14:06:35.633Z,6.57
2023-04-17T14:09:05.857Z,5.70
2023-04-17T14:11:34.182Z,5.53
2023-04-17T14:14:02.576Z,5.97
2023-04-17T14:16:31.316Z,5.20
2023-04-17T14:19:13.426Z,5.30
2023-04-17T14:21:43.275Z,5.90
2023-04-17T14:24:12.994Z,5.17
2023-04-17T14:26:41.319Z,5.63
2023-04-17T14:29:10.675Z,5.83
2023-04-17T14:31:39.481Z,5.50
2023-04-17T14:34:08.274Z,4.73
2023-04-17T14:36:36.740Z,6.50
2023-04-17T14:39:05.415Z,6.30
2023-04-17T14:41:35.221Z,5.27
2023-04-17T14:44:03.710Z,6.63
2023-04-17T14:46:32.180Z,6.40
2023-04-17T14:49:00.671Z,6.07
2023-04-17T14:51:30.593Z,8.33
2023-04-17T14:53:59.326Z,5.17
2023-04-17T14:56:27.862Z,6.03
2023-04-17T14:58:58.318Z,5.47
2023-04-17T15:01:26.859Z,5.97
2023-04-17T15:03:57.209Z,5.20
2023-04-17T15:06:26.275Z,5.37
2023-04-17T15:08:54.838Z,5.03
2023-04-17T15:11:23.159Z,5.00
2023-04-17T15:13:51.789Z,5.80
2023-04-17T15:16:21.609Z,5.57
2023-04-17T15:18:51.144Z,6.17
2023-04-17T15:21:19.908Z,5.50
2023-04-17T15:23:48.296Z,6.13
2023-04-17T15:26:16.771Z,6.40
2023-04-17T15:28:45.169Z,6.80
2023-04-17T15:31:13.523Z,7.67
2023-04-17T15:33:43.330Z,5.93
2023-04-17T15:36:11.696Z,5.90
2023-04-17T15:38:40.017Z,7.47
2023-04-17T15:41:10.151Z,8.23
2023-04-17T15:43:39.754Z,9.70
2023-04-17T15:46:08.146Z,7.27
2023-04-17T15:48:36.518Z,5.97
2023-04-17T15:51:07.121Z,6.00
2023-04-17T15:53:35.474Z,6.00
2023-04-17T15:56:03.833Z,5.60
2023-04-17T15:58:32.766Z,6.10
2023-04-17T16:01:01.803Z,6.17
2023-04-17T16:03:30.226Z,6.90
2023-04-17T16:05:58.676Z,8.70
2023-04-17T16:08:28.402Z,9.13
2023-04-17T16:10:57.701Z,6.90
2023-04-17T16:13:26.078Z,5.70
2023-04-17T16:15:54.492Z,6.03
2023-04-17T16:18:22.818Z,7.50
2023-04-17T16:20:51.083Z,6.50
2023-04-17T16:23:19.404Z,5.53
2023-04-17T16:25:50.232Z,9.43
2023-04-17T16:28:18.623Z,9.20
2023-04-17T16:30:47.807Z,5.80
2023-04-17T16:33:16.155Z,8.10
2023-04-17T16:35:44.494Z,6.40
2023-04-17T16:38:12.945Z,5.90
2023-04-17T16:40:41.378Z,5.57
2023-04-17T16:43:11.388Z,5.43
2023-04-17T16:45:39.704Z,6.07
2023-04-17T16:48:09.241Z,6.93
2023-04-17T16:50:37.722Z,7.80
2023-04-17T16:53:06.140Z,10.00
2023-04-17T16:55:34.553Z,9.93
2023-04-17T16:58:04.424Z,8.90
2023-04-17T17:00:34.537Z,9.87
2023-04-17T17:03:03.207Z,6.07
2023-04-17T17:05:31.701Z,7.27
2023-04-17T17:08:00.136Z,6.37
2023-04-17T17:10:28.612Z,6.77
2023-04-17T17:12:56.935Z,7.80
2023-04-17T17:15:25.578Z,7.60
2023-04-17T17:17:55.380Z,8.00
2023-04-17T17:20:23.745Z,10.67
2023-04-17T17:22:52.097Z,6.90
2023-04-17T17:25:20.619Z,6.40
2023-04-17T17:27:49.118Z,7.20
2023-04-17T17:30:17.840Z,8.10
2023-04-17T17:32:46.270Z,8.30
2023-04-17T17:35:16.031Z,8.30
2023-04-17T17:37:44.425Z,8.80
2023-04-17T17:40:13.291Z,7.30
2023-04-17T17:42:41.623Z,6.93
2023-04-17T17:45:11.355Z,7.40
2023-04-17T17:47:40.247Z,6.57
2023-04-17T17:50:09.988Z,7.17
2023-04-17T17:52:39.708Z,8.47
2023-04-17T17:55:08.866Z,6.20
2023-04-17T17:57:48.298Z,8.70
2023-04-17T18:00:18.400Z,10.20
2023-04-17T18:02:46.893Z,9.90
2023-04-17T18:05:15.337Z,10.23
2023-04-17T18:07:45.242Z,7.83
2023-04-17T18:10:13.987Z,7.67
2023-04-17T18:12:42.461Z,10.30
2023-04-17T18:15:11.991Z,7.17
2023-04-17T18:17:40.395Z,7.50
2023-04-17T18:20:10.525Z,7.30
2023-04-17T18:22:39.021Z,7.47
2023-04-17T18:25:10.299Z,8.10
2023-04-17T18:27:38.668Z,7.80
2023-04-17T18:30:09.436Z,7.90
2023-04-17T18:32:38.046Z,9.70
2023-04-17T18:35:07.895Z,8.17
2023-04-17T18:37:36.329Z,7.43
2023-04-17T18:40:07.229Z,8.40
2023-04-17T18:42:36.974Z,7.63
2023-04-17T18:45:06.457Z,11.50
2023-04-17T18:47:34.870Z,9.43
2023-04-17T18:50:04.735Z,9.87
2023-04-17T18:52:33.241Z,10.23
2023-04-17T18:55:02.701Z,8.07
2023-04-17T18:57:31.054Z,9.27
2023-04-17T19:00:00.755Z,7.73
2023-04-17T19:02:29.180Z,13.60
2023-04-17T19:04:57.511Z,9.73
2023-04-17T19:07:26.060Z,7.90
2023-04-17T19:09:54.463Z,8.53
2023-04-17T19:12:22.856Z,10.20
2023-04-17T19:14:51.899Z,7.97
2023-04-17T19:17:21.854Z,7.57
2023-04-17T19:19:50.164Z,10.63
2023-04-17T19:22:18.899Z,9.27
2023-04-17T19:24:49.917Z,12.53
2023-04-17T19:27:18.498Z,9.07
2023-04-17T19:29:47.679Z,10.50
2023-04-17T19:32:16.969Z,8.67
2023-04-17T19:34:46.703Z,11.37
2023-04-17T19:37:15.095Z,8.53
2023-04-17T19:39:43.435Z,10.70
2023-04-17T19:42:11.925Z,9.77
2023-04-17T19:44:40.268Z,10.47
2023-04-17T19:47:08.609Z,8.87
2023-04-17T19:49:36.965Z,9.30
2023-04-17T19:52:06.805Z,8.30
2023-04-17T19:54:35.209Z,7.20
2023-04-17T19:57:03.711Z,7.87
2023-04-17T19:59:32.034Z,8.50
2023-04-17T20:02:00.505Z,8.30
2023-04-17T20:04:29.199Z,7.63
2023-04-17T20:06:58.425Z,14.77
2023-04-17T20:09:28.143Z,7.37
2023-04-17T20:11:56.732Z,8.20
2023-04-17T20:14:25.867Z,10.63
2023-04-17T20:16:54.398Z,9.80
2023-04-17T20:19:22.873Z,8.57
2023-04-17T20:21:51.469Z,10.10
2023-04-17T20:24:20.079Z,8.10
2023-04-17T20:26:50.114Z,11.33
2023-04-17T20:29:18.685Z,9.67
2023-04-17T20:31:47.190Z,11.43
2023-04-17T20:34:15.886Z,9.47
2023-04-17T20:36:44.509Z,7.73
2023-04-17T20:39:13.155Z,10.60
2023-04-17T20:41:42.153Z,12.00
2023-04-17T20:44:12.435Z,10.33
2023-04-17T20:46:41.045Z,9.17
2023-04-17T20:49:09.772Z,11.77
2023-04-17T20:51:38.414Z,8.70
2023-04-17T20:54:07.030Z,10.60
2023-04-17T20:56:35.485Z,8.37
2023-04-17T20:59:04.071Z,10.80
2023-04-17T21:01:33.898Z,9.13
2023-04-17T21:04:02.521Z,11.63
2023-04-17T21:06:31.247Z,8.17
2023-04-17T21:08:59.804Z,13.10
2023-04-17T21:11:28.234Z,8.43
2023-04-17T21:13:58.520Z,9.50
2023-04-17T21:16:27.028Z,9.37
2023-04-17T21:18:57.002Z,9.87
2023-04-17T21:21:26.234Z,8.87
2023-04-17T21:23:54.797Z,15.77
2023-04-17T21:26:23.193Z,10.77
2023-04-17T21:28:51.690Z,10.73
2023-04-17T21:31:20.269Z,11.33
2023-04-17T21:33:48.889Z,13.13
2023-04-17T21:36:19.568Z,10.10
2023-04-17T21:38:48.197Z,9.93
2023-04-17T21:41:16.774Z,11.53
2023-04-17T21:43:45.189Z,8.40
2023-04-17T21:46:13.690Z,9.50
2023-04-17T21:48:42.172Z,10.53
2023-04-17T21:51:10.653Z,8.80
2023-04-17T21:53:40.479Z,10.63
2023-04-17T21:56:10.207Z,13.90
2023-04-17T21:58:38.669Z,9.83
2023-04-17T22:01:07.348Z,12.13
2023-04-17T22:03:36.278Z,10.33
2023-04-17T22:06:06.018Z,9.20
2023-04-17T22:08:34.435Z,9.80
2023-04-17T22:11:05.379Z,10.60
2023-04-17T22:13:33.942Z,10.30
2023-04-17T22:16:02.488Z,8.93
2023-04-17T22:18:31.270Z,9.70
2023-04-17T22:20:59.649Z,9.17
2023-04-17T22:23:28.143Z,14.43
2023-04-17T22:25:56.589Z,12.10
2023-04-17T22:28:26.791Z,11.03
2023-04-17T22:30:55.737Z,8.57
2023-04-17T22:33:24.219Z,10.30
2023-04-17T22:35:52.758Z,9.20
2023-04-17T22:38:21.596Z,9.23
2023-04-17T22:40:50.154Z,9.20
2023-04-17T22:43:18.593Z,9.10
2023-04-17T22:45:48.386Z,10.23
2023-04-17T22:48:17.802Z,10.60
2023-04-17T22:50:46.635Z,12.20
2023-04-17T22:53:15.083Z,9.37
2023-04-17T22:55:43.549Z,9.90
2023-04-17T22:58:11.926Z,11.27
2023-04-17T23:00:40.354Z,13.30
2023-04-17T23:03:10.169Z,11.10
2023-04-17T23:05:38.743Z,11.03
2023-04-17T23:08:07.141Z,9.40
2023-04-17T23:10:35.529Z,10.90
2023-04-17T23:13:04.369Z,10.43
2023-04-17T23:15:34.066Z,9.63
2023-04-17T23:18:02.474Z,10.00
2023-04-17T23:20:32.293Z,9.67
2023-04-17T23:23:00.804Z,9.53
2023-04-17T23:25:30.221Z,9.93
2023-04-17T23:27:58.735Z,14.63
2023-04-17T23:30:27.269Z,10.57
2023-04-17T23:32:56.829Z,10.30
2023-04-17T23:35:26.568Z,8.73
2023-04-17T23:37:56.265Z,9.60
2023-04-17T23:40:25.807Z,9.67
2023-04-17T23:42:54.194Z,10.23
2023-04-17T23:45:22.782Z,11.10
2023-04-17T23:47:53.066Z,10.50
2023-04-17T23:50:21.741Z,9.70
2023-04-17T23:52:50.344Z,9.73
2023-04-17T23:55:20.066Z,10.47
2023-04-17T23:57:50.434Z,11.53
